sensor_id;sensor_type;location;lat;lon;timestamp;P1;durP1;ratioP1;P2;durP2;ratioP2
2055;SDS011;1033;52.560;13.374;2023-07-13T00:01:59;7.23;;;5.40;;
2055;SDS011;1033;52.560;13.374;2023-07-13T00:04:42;12.00;;;4.67;;
2055;SDS011;1033;52.560;13.374;2023-07-13T00:07:19;9.83;;;4.83;;
2055;SDS011;1033;52.560;13.374;2023-07-13T00:10:07;7.20;;;5.53;;
2055;SDS011;1033;52.560;13.374;2023-07-13T00:12:40;8.23;;;4.30;;
2055;SDS011;1033;52.560;13.374;2023-07-13T00:15:25;5.63;;;5.00;;
2055;SDS011;1033;52.560;13.374;2023-07-13T00:18:02;6.53;;;4.80;;
2055;SDS011;1033;52.560;13.374;2023-07-13T00:20:39;5.70;;;4.90;;
2055;SDS011;1033;52.560;13.374;2023-07-13T00:23:21;9.37;;;5.20;;
2055;SDS011;1033;52.560;13.374;2023-07-13T00:25:56;7.90;;;5.33;;
2055;SDS011;1033;52.560;13.374;2023-07-13T00:28:37;10.23;;;5.43;;
2055;SDS011;1033;52.560;13.374;2023-07-13T00:31:19;4.60;;;4.00;;
2055;SDS011;1033;52.560;13.374;2023-07-13T00:34:01;6.27;;;4.77;;
2055;SDS011;1033;52.560;13.374;2023-07-13T00:36:35;11.23;;;5.37;;
2055;SDS011;1033;52.560;13.374;2023-07-13T00:39:14;7.40;;;4.50;;
2055;SDS011;1033;52.560;13.374;2023-07-13T00:41:51;9.67;;;4.67;;
2055;SDS011;1033;52.560;13.374;2023-07-13T00:44:29;6.23;;;4.70;;
2055;SDS011;1033;52.560;13.374;2023-07-13T00:47:12;10.47;;;4.80;;
2055;SDS011;1033;52.560;13.374;2023-07-13T00:49:54;8.50;;;4.30;;
2055;SDS011;1033;52.560;13.374;2023-07-13T00:52:33;8.13;;;4.17;;
2055;SDS011;1033;52.560;13.374;2023-07-13T00:55:16;7.83;;;4.70;;
2055;SDS011;1033;52.560;13.374;2023-07-13T00:57:53;7.43;;;5.10;;
2055;SDS011;1033;52.560;13.374;2023-07-13T01:00:33;5.70;;;4.60;;
2055;SDS011;1033;52.560;13.374;2023-07-13T01:03:11;5.67;;;5.17;;
2055;SDS011;1033;52.560;13.374;2023-07-13T01:53:58;8.50;;;5.17;;
2055;SDS011;1033;52.560;13.374;2023-07-13T01:56:45;6.90;;;4.70;;
2055;SDS011;1033;52.560;13.374;2023-07-13T01:59:29;8.10;;;6.23;;
2055;SDS011;1033;52.560;13.374;2023-07-13T02:02:06;6.60;;;5.00;;
2055;SDS011;1033;52.560;13.374;2023-07-13T02:04:51;6.93;;;5.40;;
2055;SDS011;1033;52.560;13.374;2023-07-13T02:07:37;6.53;;;4.93;;
2055;SDS011;1033;52.560;13.374;2023-07-13T02:13:48;8.47;;;5.80;;
2055;SDS011;1033;52.560;13.374;2023-07-13T02:16:25;5.47;;;4.63;;
2055;SDS011;1033;52.560;13.374;2023-07-13T02:19:07;6.80;;;5.70;;
2055;SDS011;1033;52.560;13.374;2023-07-13T02:21:44;6.00;;;5.23;;
2055;SDS011;1033;52.560;13.374;2023-07-13T02:24:24;6.40;;;5.27;;
2055;SDS011;1033;52.560;13.374;2023-07-13T02:27:08;9.93;;;6.60;;
2055;SDS011;1033;52.560;13.374;2023-07-13T02:30:06;5.77;;;5.17;;
2055;SDS011;1033;52.560;13.374;2023-07-13T02:32:47;8.10;;;5.13;;
2055;SDS011;1033;52.560;13.374;2023-07-13T02:35:26;6.90;;;6.10;;
2055;SDS011;1033;52.560;13.374;2023-07-13T02:38:05;5.53;;;4.93;;
2055;SDS011;1033;52.560;13.374;2023-07-13T02:40:43;5.83;;;5.27;;
2055;SDS011;1033;52.560;13.374;2023-07-13T02:43:25;6.23;;;5.67;;
2055;SDS011;1033;52.560;13.374;2023-07-13T02:46:10;7.43;;;5.40;;
2055;SDS011;1033;52.560;13.374;2023-07-13T02:48:53;5.90;;;5.10;;
2055;SDS011;1033;52.560;13.374;2023-07-13T02:51:33;8.93;;;6.10;;
2055;SDS011;1033;52.560;13.374;2023-07-13T02:54:22;6.17;;;5.20;;
2055;SDS011;1033;52.560;13.374;2023-07-13T02:57:01;13.27;;;5.10;;
2055;SDS011;1033;52.560;13.374;2023-07-13T02:59:38;9.83;;;5.40;;
2055;SDS011;1033;52.560;13.374;2023-07-13T03:02:23;6.33;;;5.13;;
2055;SDS011;1033;52.560;13.374;2023-07-13T03:05:02;4.80;;;4.40;;
2055;SDS011;1033;52.560;13.374;2023-07-13T03:07:49;6.10;;;5.40;;
2055;SDS011;1033;52.560;13.374;2023-07-13T03:10:38;7.43;;;5.60;;
2055;SDS011;1033;52.560;13.374;2023-07-13T03:13:25;7.23;;;5.00;;
2055;SDS011;1033;52.560;13.374;2023-07-13T03:16:08;5.27;;;4.77;;
2055;SDS011;1033;52.560;13.374;2023-07-13T03:19:02;5.63;;;5.13;;
2055;SDS011;1033;52.560;13.374;2023-07-13T03:21:49;6.27;;;4.90;;
2055;SDS011;1033;52.560;13.374;2023-07-13T03:24:32;8.70;;;5.20;;
2055;SDS011;1033;52.560;13.374;2023-07-13T03:27:09;8.37;;;5.70;;
2055;SDS011;1033;52.560;13.374;2023-07-13T03:29:57;5.50;;;5.00;;
2055;SDS011;1033;52.560;13.374;2023-07-13T03:32:41;6.10;;;4.60;;
2055;SDS011;1033;52.560;13.374;2023-07-13T03:35:23;5.50;;;4.87;;
2055;SDS011;1033;52.560;13.374;2023-07-13T03:38:08;5.07;;;4.53;;
2055;SDS011;1033;52.560;13.374;2023-07-13T03:40:46;5.77;;;5.27;;
2055;SDS011;1033;52.560;13.374;2023-07-13T03:43:30;7.60;;;5.40;;
2055;SDS011;1033;52.560;13.374;2023-07-13T03:46:12;12.07;;;6.13;;
2055;SDS011;1033;52.560;13.374;2023-07-13T03:51:55;5.80;;;4.30;;
2055;SDS011;1033;52.560;13.374;2023-07-13T03:54:24;10.97;;;5.20;;
2055;SDS011;1033;52.560;13.374;2023-07-13T03:56:54;5.20;;;4.70;;
2055;SDS011;1033;52.560;13.374;2023-07-13T03:59:23;8.10;;;4.77;;
2055;SDS011;1033;52.560;13.374;2023-07-13T04:01:52;6.33;;;4.40;;
2055;SDS011;1033;52.560;13.374;2023-07-13T04:04:22;5.00;;;4.50;;
2055;SDS011;1033;52.560;13.374;2023-07-13T04:06:52;4.67;;;3.80;;
2055;SDS011;1033;52.560;13.374;2023-07-13T04:09:23;7.90;;;4.60;;
2055;SDS011;1033;52.560;13.374;2023-07-13T04:11:52;4.87;;;3.60;;
2055;SDS011;1033;52.560;13.374;2023-07-13T04:14:22;4.70;;;4.17;;
2055;SDS011;1033;52.560;13.374;2023-07-13T04:16:51;5.20;;;4.70;;
2055;SDS011;1033;52.560;13.374;2023-07-13T04:19:21;12.83;;;4.53;;
2055;SDS011;1033;52.560;13.374;2023-07-13T04:21:50;4.53;;;3.77;;
2055;SDS011;1033;52.560;13.374;2023-07-13T04:24:19;4.80;;;4.40;;
2055;SDS011;1033;52.560;13.374;2023-07-13T04:26:49;5.40;;;4.20;;
2055;SDS011;1033;52.560;13.374;2023-07-13T04:29:18;4.50;;;3.77;;
2055;SDS011;1033;52.560;13.374;2023-07-13T04:31:47;5.67;;;4.23;;
2055;SDS011;1033;52.560;13.374;2023-07-13T04:34:17;4.17;;;3.53;;
2055;SDS011;1033;52.560;13.374;2023-07-13T04:36:46;4.93;;;4.20;;
2055;SDS011;1033;52.560;13.374;2023-07-13T04:39:15;5.63;;;3.47;;
2055;SDS011;1033;52.560;13.374;2023-07-13T04:41:44;7.83;;;4.80;;
2055;SDS011;1033;52.560;13.374;2023-07-13T04:44:15;6.53;;;4.27;;
2055;SDS011;1033;52.560;13.374;2023-07-13T04:46:44;5.97;;;3.70;;
2055;SDS011;1033;52.560;13.374;2023-07-13T04:49:13;6.13;;;3.83;;
2055;SDS011;1033;52.560;13.374;2023-07-13T04:51:42;4.80;;;4.10;;
2055;SDS011;1033;52.560;13.374;2023-07-13T04:54:12;4.60;;;3.87;;
2055;SDS011;1033;52.560;13.374;2023-07-13T04:56:41;7.60;;;4.37;;
2055;SDS011;1033;52.560;13.374;2023-07-13T04:59:10;5.40;;;4.13;;
2055;SDS011;1033;52.560;13.374;2023-07-13T05:01:40;5.23;;;3.93;;
2055;SDS011;1033;52.560;13.374;2023-07-13T05:04:10;4.83;;;4.00;;
2055;SDS011;1033;52.560;13.374;2023-07-13T05:06:39;5.47;;;4.90;;
2055;SDS011;1033;52.560;13.374;2023-07-13T05:09:08;5.10;;;4.60;;
2055;SDS011;1033;52.560;13.374;2023-07-13T05:11:39;6.27;;;3.50;;
2055;SDS011;1033;52.560;13.374;2023-07-13T05:14:08;3.60;;;3.30;;
2055;SDS011;1033;52.560;13.374;2023-07-13T05:16:38;5.87;;;4.13;;
2055;SDS011;1033;52.560;13.374;2023-07-13T05:19:09;4.90;;;3.30;;
2055;SDS011;1033;52.560;13.374;2023-07-13T05:21:40;7.70;;;4.80;;
2055;SDS011;1033;52.560;13.374;2023-07-13T05:24:09;4.77;;;4.27;;
2055;SDS011;1033;52.560;13.374;2023-07-13T05:26:51;5.90;;;4.50;;
2055;SDS011;1033;52.560;13.374;2023-07-13T05:29:21;8.73;;;3.77;;
2055;SDS011;1033;52.560;13.374;2023-07-13T05:31:52;5.83;;;4.13;;
2055;SDS011;1033;52.560;13.374;2023-07-13T05:34:23;4.43;;;3.93;;
2055;SDS011;1033;52.560;13.374;2023-07-13T05:36:53;5.10;;;4.60;;
2055;SDS011;1033;52.560;13.374;2023-07-13T05:39:22;6.17;;;4.53;;
2055;SDS011;1033;52.560;13.374;2023-07-13T05:41:52;6.00;;;5.47;;
2055;SDS011;1033;52.560;13.374;2023-07-13T05:44:22;5.30;;;4.90;;
2055;SDS011;1033;52.560;13.374;2023-07-13T05:46:52;6.60;;;4.70;;
2055;SDS011;1033;52.560;13.374;2023-07-13T05:49:23;9.20;;;4.30;;
2055;SDS011;1033;52.560;13.374;2023-07-13T05:51:52;5.57;;;4.43;;
2055;SDS011;1033;52.560;13.374;2023-07-13T05:54:21;8.73;;;4.40;;
2055;SDS011;1033;52.560;13.374;2023-07-13T05:56:50;7.60;;;5.13;;
2055;SDS011;1033;52.560;13.374;2023-07-13T05:59:19;7.03;;;5.23;;
2055;SDS011;1033;52.560;13.374;2023-07-13T06:01:49;8.83;;;4.27;;
2055;SDS011;1033;52.560;13.374;2023-07-13T06:04:21;7.00;;;4.47;;
2055;SDS011;1033;52.560;13.374;2023-07-13T06:06:50;5.00;;;4.60;;
2055;SDS011;1033;52.560;13.374;2023-07-13T06:09:19;3.93;;;3.63;;
2055;SDS011;1033;52.560;13.374;2023-07-13T06:11:48;4.60;;;3.73;;
2055;SDS011;1033;52.560;13.374;2023-07-13T06:14:18;5.30;;;3.87;;
2055;SDS011;1033;52.560;13.374;2023-07-13T06:16:48;6.20;;;3.70;;
2055;SDS011;1033;52.560;13.374;2023-07-13T06:19:17;5.03;;;4.20;;
2055;SDS011;1033;52.560;13.374;2023-07-13T06:21:48;8.13;;;4.20;;
2055;SDS011;1033;52.560;13.374;2023-07-13T06:24:17;4.67;;;3.83;;
2055;SDS011;1033;52.560;13.374;2023-07-13T06:26:46;3.87;;;3.43;;
2055;SDS011;1033;52.560;13.374;2023-07-13T06:29:15;7.80;;;3.70;;
2055;SDS011;1033;52.560;13.374;2023-07-13T06:31:45;5.40;;;4.23;;
2055;SDS011;1033;52.560;13.374;2023-07-13T06:34:14;3.83;;;2.83;;
2055;SDS011;1033;52.560;13.374;2023-07-13T06:36:43;4.80;;;3.60;;
2055;SDS011;1033;52.560;13.374;2023-07-13T06:39:14;5.33;;;4.30;;
2055;SDS011;1033;52.560;13.374;2023-07-13T06:41:43;8.27;;;4.10;;
2055;SDS011;1033;52.560;13.374;2023-07-13T06:44:13;6.00;;;4.50;;
2055;SDS011;1033;52.560;13.374;2023-07-13T06:46:42;3.50;;;2.80;;
2055;SDS011;1033;52.560;13.374;2023-07-13T06:49:11;3.33;;;3.03;;
2055;SDS011;1033;52.560;13.374;2023-07-13T06:51:40;3.87;;;3.53;;
2055;SDS011;1033;52.560;13.374;2023-07-13T06:54:09;4.50;;;3.13;;
2055;SDS011;1033;52.560;13.374;2023-07-13T06:56:44;5.83;;;3.57;;
2055;SDS011;1033;52.560;13.374;2023-07-13T06:59:15;5.97;;;3.73;;
2055;SDS011;1033;52.560;13.374;2023-07-13T07:01:44;5.27;;;3.60;;
2055;SDS011;1033;52.560;13.374;2023-07-13T07:04:14;4.87;;;3.60;;
2055;SDS011;1033;52.560;13.374;2023-07-13T07:06:43;3.00;;;2.70;;
2055;SDS011;1033;52.560;13.374;2023-07-13T07:09:12;9.33;;;3.80;;
2055;SDS011;1033;52.560;13.374;2023-07-13T07:11:44;4.10;;;2.93;;
2055;SDS011;1033;52.560;13.374;2023-07-13T07:14:29;4.50;;;2.47;;
2055;SDS011;1033;52.560;13.374;2023-07-13T07:16:58;5.17;;;2.80;;
2055;SDS011;1033;52.560;13.374;2023-07-13T07:19:29;6.47;;;3.20;;
2055;SDS011;1033;52.560;13.374;2023-07-13T07:21:58;5.30;;;3.67;;
2055;SDS011;1033;52.560;13.374;2023-07-13T07:24:28;7.53;;;3.13;;
2055;SDS011;1033;52.560;13.374;2023-07-13T07:26:58;3.67;;;2.37;;
2055;SDS011;1033;52.560;13.374;2023-07-13T07:29:31;9.07;;;3.60;;
2055;SDS011;1033;52.560;13.374;2023-07-13T07:32:03;4.03;;;3.10;;
2055;SDS011;1033;52.560;13.374;2023-07-13T07:34:44;3.80;;;3.03;;
2055;SDS011;1033;52.560;13.374;2023-07-13T07:37:13;3.43;;;2.40;;
2055;SDS011;1033;52.560;13.374;2023-07-13T07:39:45;4.10;;;2.70;;
2055;SDS011;1033;52.560;13.374;2023-07-13T07:42:36;3.73;;;2.47;;
2055;SDS011;1033;52.560;13.374;2023-07-13T07:45:05;3.40;;;2.20;;
2055;SDS011;1033;52.560;13.374;2023-07-13T07:47:38;4.57;;;3.27;;
2055;SDS011;1033;52.560;13.374;2023-07-13T07:50:08;3.37;;;2.13;;
2055;SDS011;1033;52.560;13.374;2023-07-13T07:52:38;6.60;;;2.90;;
2055;SDS011;1033;52.560;13.374;2023-07-13T07:55:07;4.97;;;2.10;;
2055;SDS011;1033;52.560;13.374;2023-07-13T07:57:40;6.00;;;2.70;;
2055;SDS011;1033;52.560;13.374;2023-07-13T08:00:13;4.00;;;3.27;;
2055;SDS011;1033;52.560;13.374;2023-07-13T08:02:46;3.13;;;2.20;;
2055;SDS011;1033;52.560;13.374;2023-07-13T08:05:19;4.37;;;2.73;;
2055;SDS011;1033;52.560;13.374;2023-07-13T08:08:02;4.90;;;2.57;;
2055;SDS011;1033;52.560;13.374;2023-07-13T08:10:34;4.70;;;2.90;;
2055;SDS011;1033;52.560;13.374;2023-07-13T08:13:07;4.93;;;2.80;;
2055;SDS011;1033;52.560;13.374;2023-07-13T08:15:38;6.90;;;2.93;;
2055;SDS011;1033;52.560;13.374;2023-07-13T08:18:07;7.33;;;3.30;;
2055;SDS011;1033;52.560;13.374;2023-07-13T08:20:36;4.90;;;3.70;;
2055;SDS011;1033;52.560;13.374;2023-07-13T08:23:06;5.07;;;3.40;;
2055;SDS011;1033;52.560;13.374;2023-07-13T08:25:37;4.33;;;2.97;;
2055;SDS011;1033;52.560;13.374;2023-07-13T08:28:08;3.17;;;2.87;;
2055;SDS011;1033;52.560;13.374;2023-07-13T08:30:37;4.33;;;2.57;;
2055;SDS011;1033;52.560;13.374;2023-07-13T08:33:06;3.63;;;2.90;;
2055;SDS011;1033;52.560;13.374;2023-07-13T08:35:35;3.47;;;2.50;;
2055;SDS011;1033;52.560;13.374;2023-07-13T08:38:05;5.20;;;2.97;;
2055;SDS011;1033;52.560;13.374;2023-07-13T08:40:35;6.70;;;3.00;;
2055;SDS011;1033;52.560;13.374;2023-07-13T08:43:04;2.90;;;2.60;;
2055;SDS011;1033;52.560;13.374;2023-07-13T08:45:42;3.60;;;2.40;;
2055;SDS011;1033;52.560;13.374;2023-07-13T08:48:15;4.03;;;2.60;;
2055;SDS011;1033;52.560;13.374;2023-07-13T08:50:49;2.30;;;2.10;;
2055;SDS011;1033;52.560;13.374;2023-07-13T08:53:40;3.50;;;2.30;;
2055;SDS011;1033;52.560;13.374;2023-07-13T08:56:16;4.53;;;2.30;;
2055;SDS011;1033;52.560;13.374;2023-07-13T08:58:49;4.00;;;2.20;;
2055;SDS011;1033;52.560;13.374;2023-07-13T09:01:25;4.77;;;2.27;;
2055;SDS011;1033;52.560;13.374;2023-07-13T09:04:03;3.57;;;2.63;;
2055;SDS011;1033;52.560;13.374;2023-07-13T09:06:42;4.00;;;2.47;;
2055;SDS011;1033;52.560;13.374;2023-07-13T09:09:22;3.77;;;2.43;;
2055;SDS011;1033;52.560;13.374;2023-07-13T09:12:07;7.03;;;2.80;;
2055;SDS011;1033;52.560;13.374;2023-07-13T09:14:45;4.57;;;2.13;;
2055;SDS011;1033;52.560;13.374;2023-07-13T09:17:18;4.00;;;2.40;;
2055;SDS011;1033;52.560;13.374;2023-07-13T09:19:53;3.00;;;2.40;;
2055;SDS011;1033;52.560;13.374;2023-07-13T09:22:30;3.60;;;2.63;;
2055;SDS011;1033;52.560;13.374;2023-07-13T09:25:04;3.63;;;2.30;;
2055;SDS011;1033;52.560;13.374;2023-07-13T09:27:41;3.90;;;2.40;;
2055;SDS011;1033;52.560;13.374;2023-07-13T09:30:23;3.80;;;2.03;;
2055;SDS011;1033;52.560;13.374;2023-07-13T09:33:03;6.83;;;3.10;;
2055;SDS011;1033;52.560;13.374;2023-07-13T09:35:34;5.60;;;2.40;;
2055;SDS011;1033;52.560;13.374;2023-07-13T09:38:10;5.07;;;2.67;;
2055;SDS011;1033;52.560;13.374;2023-07-13T09:40:44;3.60;;;2.97;;
2055;SDS011;1033;52.560;13.374;2023-07-13T09:43:20;5.43;;;3.03;;
2055;SDS011;1033;52.560;13.374;2023-07-13T09:45:51;7.57;;;3.50;;
2055;SDS011;1033;52.560;13.374;2023-07-13T09:48:20;6.37;;;3.40;;
2055;SDS011;1033;52.560;13.374;2023-07-13T09:50:54;3.73;;;2.80;;
2055;SDS011;1033;52.560;13.374;2023-07-13T09:53:25;4.80;;;3.33;;
2055;SDS011;1033;52.560;13.374;2023-07-13T09:56:11;6.73;;;3.73;;
2055;SDS011;1033;52.560;13.374;2023-07-13T09:58:48;5.53;;;3.50;;
2055;SDS011;1033;52.560;13.374;2023-07-13T10:01:30;4.40;;;3.67;;
2055;SDS011;1033;52.560;13.374;2023-07-13T10:04:01;4.80;;;3.97;;
2055;SDS011;1033;52.560;13.374;2023-07-13T10:06:38;6.47;;;3.67;;
2055;SDS011;1033;52.560;13.374;2023-07-13T10:09:10;5.03;;;3.70;;
2055;SDS011;1033;52.560;13.374;2023-07-13T10:11:42;5.63;;;3.60;;
2055;SDS011;1033;52.560;13.374;2023-07-13T10:14:13;5.87;;;3.80;;
2055;SDS011;1033;52.560;13.374;2023-07-13T10:16:47;5.30;;;4.23;;
2055;SDS011;1033;52.560;13.374;2023-07-13T10:19:21;4.10;;;3.77;;
2055;SDS011;1033;52.560;13.374;2023-07-13T10:21:54;7.03;;;3.70;;
2055;SDS011;1033;52.560;13.374;2023-07-13T10:24:26;7.33;;;4.40;;
2055;SDS011;1033;52.560;13.374;2023-07-13T10:27:00;5.87;;;3.57;;
2055;SDS011;1033;52.560;13.374;2023-07-13T10:29:34;7.13;;;3.60;;
2055;SDS011;1033;52.560;13.374;2023-07-13T10:32:10;4.93;;;3.67;;
2055;SDS011;1033;52.560;13.374;2023-07-13T10:37:41;6.00;;;3.40;;
2055;SDS011;1033;52.560;13.374;2023-07-13T10:40:18;7.03;;;3.93;;
2055;SDS011;1033;52.560;13.374;2023-07-13T10:42:52;5.90;;;4.03;;
2055;SDS011;1033;52.560;13.374;2023-07-13T10:45:25;7.70;;;4.50;;
2055;SDS011;1033;52.560;13.374;2023-07-13T10:47:59;7.50;;;3.90;;
2055;SDS011;1033;52.560;13.374;2023-07-13T10:50:29;5.40;;;3.50;;
2055;SDS011;1033;52.560;13.374;2023-07-13T10:53:01;5.90;;;3.83;;
2055;SDS011;1033;52.560;13.374;2023-07-13T10:55:34;4.47;;;3.80;;
2055;SDS011;1033;52.560;13.374;2023-07-13T10:58:14;8.03;;;3.83;;
2055;SDS011;1033;52.560;13.374;2023-07-13T11:00:49;5.83;;;3.43;;
2055;SDS011;1033;52.560;13.374;2023-07-13T11:03:22;6.37;;;3.47;;
2055;SDS011;1033;52.560;13.374;2023-07-13T11:06:05;7.00;;;3.50;;
2055;SDS011;1033;52.560;13.374;2023-07-13T11:08:50;7.27;;;4.13;;
2055;SDS011;1033;52.560;13.374;2023-07-13T11:11:34;3.67;;;3.37;;
2055;SDS011;1033;52.560;13.374;2023-07-13T11:14:08;5.60;;;3.93;;
2055;SDS011;1033;52.560;13.374;2023-07-13T11:16:56;5.93;;;3.47;;
2055;SDS011;1033;52.560;13.374;2023-07-13T11:22:24;7.70;;;3.97;;
2055;SDS011;1033;52.560;13.374;2023-07-13T11:30:46;5.23;;;3.97;;
2055;SDS011;1033;52.560;13.374;2023-07-13T11:33:19;4.20;;;3.40;;
2055;SDS011;1033;52.560;13.374;2023-07-13T11:35:57;7.40;;;3.30;;
2055;SDS011;1033;52.560;13.374;2023-07-13T11:38:29;3.80;;;3.37;;
2055;SDS011;1033;52.560;13.374;2023-07-13T11:41:03;4.67;;;2.87;;
2055;SDS011;1033;52.560;13.374;2023-07-13T11:43:34;4.73;;;3.10;;
2055;SDS011;1033;52.560;13.374;2023-07-13T11:46:19;7.27;;;3.20;;
2055;SDS011;1033;52.560;13.374;2023-07-13T11:48:50;3.87;;;2.93;;
2055;SDS011;1033;52.560;13.374;2023-07-13T11:51:22;4.77;;;3.67;;
2055;SDS011;1033;52.560;13.374;2023-07-13T11:53:54;7.00;;;3.83;;
2055;SDS011;1033;52.560;13.374;2023-07-13T11:56:28;4.63;;;3.20;;
2055;SDS011;1033;52.560;13.374;2023-07-13T11:59:02;7.70;;;3.93;;
2055;SDS011;1033;52.560;13.374;2023-07-13T12:01:35;4.97;;;3.47;;
2055;SDS011;1033;52.560;13.374;2023-07-13T12:04:12;5.50;;;3.47;;
2055;SDS011;1033;52.560;13.374;2023-07-13T12:07:03;4.50;;;3.20;;
2055;SDS011;1033;52.560;13.374;2023-07-13T12:09:35;4.77;;;3.00;;
2055;SDS011;1033;52.560;13.374;2023-07-13T12:12:10;5.73;;;3.77;;
2055;SDS011;1033;52.560;13.374;2023-07-13T12:14:40;4.70;;;3.20;;
2055;SDS011;1033;52.560;13.374;2023-07-13T12:17:11;6.43;;;3.43;;
2055;SDS011;1033;52.560;13.374;2023-07-13T12:19:45;3.73;;;3.10;;
2055;SDS011;1033;52.560;13.374;2023-07-13T12:22:17;8.97;;;3.67;;
2055;SDS011;1033;52.560;13.374;2023-07-13T12:24:49;7.93;;;3.20;;
2055;SDS011;1033;52.560;13.374;2023-07-13T12:27:21;5.03;;;3.23;;
2055;SDS011;1033;52.560;13.374;2023-07-13T12:29:52;6.20;;;3.57;;
2055;SDS011;1033;52.560;13.374;2023-07-13T12:32:26;5.30;;;3.60;;
2055;SDS011;1033;52.560;13.374;2023-07-13T12:35:06;5.67;;;2.90;;
2055;SDS011;1033;52.560;13.374;2023-07-13T12:37:43;3.93;;;3.37;;
2055;SDS011;1033;52.560;13.374;2023-07-13T12:40:14;9.13;;;3.60;;
2055;SDS011;1033;52.560;13.374;2023-07-13T12:42:46;6.57;;;2.93;;
2055;SDS011;1033;52.560;13.374;2023-07-13T12:45:18;9.00;;;2.50;;
2055;SDS011;1033;52.560;13.374;2023-07-13T12:47:52;3.37;;;2.70;;
2055;SDS011;1033;52.560;13.374;2023-07-13T12:50:29;3.50;;;2.57;;
2055;SDS011;1033;52.560;13.374;2023-07-13T12:53:03;3.50;;;2.93;;
2055;SDS011;1033;52.560;13.374;2023-07-13T12:55:40;4.10;;;2.50;;
2055;SDS011;1033;52.560;13.374;2023-07-13T12:58:13;6.47;;;3.07;;
2055;SDS011;1033;52.560;13.374;2023-07-13T13:00:50;4.60;;;3.20;;
2055;SDS011;1033;52.560;13.374;2023-07-13T13:03:32;4.70;;;2.70;;
2055;SDS011;1033;52.560;13.374;2023-07-13T13:06:05;4.40;;;2.87;;
2055;SDS011;1033;52.560;13.374;2023-07-13T13:08:50;3.30;;;2.50;;
2055;SDS011;1033;52.560;13.374;2023-07-13T13:11:21;13.93;;;3.13;;
2055;SDS011;1033;52.560;13.374;2023-07-13T13:13:52;7.77;;;2.73;;
2055;SDS011;1033;52.560;13.374;2023-07-13T13:16:22;4.17;;;2.77;;
2055;SDS011;1033;52.560;13.374;2023-07-13T13:18:59;3.57;;;2.07;;
2055;SDS011;1033;52.560;13.374;2023-07-13T13:21:39;4.80;;;2.63;;
2055;SDS011;1033;52.560;13.374;2023-07-13T13:24:12;3.23;;;2.93;;
2055;SDS011;1033;52.560;13.374;2023-07-13T13:26:43;6.87;;;3.50;;
2055;SDS011;1033;52.560;13.374;2023-07-13T13:29:14;7.10;;;3.03;;
2055;SDS011;1033;52.560;13.374;2023-07-13T13:31:44;2.60;;;2.23;;
2055;SDS011;1033;52.560;13.374;2023-07-13T13:34:15;4.80;;;2.60;;
2055;SDS011;1033;52.560;13.374;2023-07-13T13:36:45;5.93;;;3.27;;
2055;SDS011;1033;52.560;13.374;2023-07-13T13:39:21;4.30;;;2.47;;
2055;SDS011;1033;52.560;13.374;2023-07-13T13:41:52;4.17;;;2.90;;
2055;SDS011;1033;52.560;13.374;2023-07-13T13:44:22;6.10;;;2.93;;
2055;SDS011;1033;52.560;13.374;2023-07-13T13:46:52;4.00;;;3.03;;
2055;SDS011;1033;52.560;13.374;2023-07-13T13:49:24;3.47;;;2.80;;
2055;SDS011;1033;52.560;13.374;2023-07-13T13:51:54;2.90;;;2.37;;
2055;SDS011;1033;52.560;13.374;2023-07-13T13:55:15;9.13;;;3.03;;
2055;SDS011;1033;52.560;13.374;2023-07-13T13:57:46;3.73;;;2.73;;
2055;SDS011;1033;52.560;13.374;2023-07-13T14:00:16;5.90;;;2.70;;
2055;SDS011;1033;52.560;13.374;2023-07-13T14:02:47;3.70;;;3.00;;
2055;SDS011;1033;52.560;13.374;2023-07-13T14:05:19;7.03;;;3.03;;
2055;SDS011;1033;52.560;13.374;2023-07-13T14:07:50;6.13;;;3.03;;
2055;SDS011;1033;52.560;13.374;2023-07-13T14:10:21;4.70;;;2.50;;
2055;SDS011;1033;52.560;13.374;2023-07-13T14:12:51;4.23;;;2.30;;
2055;SDS011;1033;52.560;13.374;2023-07-13T14:15:23;3.53;;;2.10;;
2055;SDS011;1033;52.560;13.374;2023-07-13T14:17:54;2.73;;;2.27;;
2055;SDS011;1033;52.560;13.374;2023-07-13T14:20:25;6.90;;;3.47;;
2055;SDS011;1033;52.560;13.374;2023-07-13T14:22:54;6.27;;;2.43;;
2055;SDS011;1033;52.560;13.374;2023-07-13T14:25:26;4.33;;;3.10;;
2055;SDS011;1033;52.560;13.374;2023-07-13T14:27:56;4.83;;;2.47;;
2055;SDS011;1033;52.560;13.374;2023-07-13T14:30:31;5.57;;;2.60;;
2055;SDS011;1033;52.560;13.374;2023-07-13T14:33:04;6.03;;;3.07;;
2055;SDS011;1033;52.560;13.374;2023-07-13T14:35:37;4.30;;;2.47;;
2055;SDS011;1033;52.560;13.374;2023-07-13T14:38:09;4.47;;;3.20;;
2055;SDS011;1033;52.560;13.374;2023-07-13T14:40:42;5.33;;;2.80;;
2055;SDS011;1033;52.560;13.374;2023-07-13T14:43:11;6.53;;;3.30;;
2055;SDS011;1033;52.560;13.374;2023-07-13T14:45:43;7.00;;;3.00;;
2055;SDS011;1033;52.560;13.374;2023-07-13T14:48:15;7.27;;;2.20;;
2055;SDS011;1033;52.560;13.374;2023-07-13T14:50:46;3.10;;;2.20;;
2055;SDS011;1033;52.560;13.374;2023-07-13T14:53:18;3.73;;;2.00;;
2055;SDS011;1033;52.560;13.374;2023-07-13T14:55:49;4.23;;;2.20;;
2055;SDS011;1033;52.560;13.374;2023-07-13T14:58:18;4.97;;;2.37;;
2055;SDS011;1033;52.560;13.374;2023-07-13T15:00:48;7.97;;;1.60;;
2055;SDS011;1033;52.560;13.374;2023-07-13T15:03:23;2.57;;;2.07;;
2055;SDS011;1033;52.560;13.374;2023-07-13T15:05:53;3.50;;;2.23;;
2055;SDS011;1033;52.560;13.374;2023-07-13T15:08:22;8.00;;;2.37;;
2055;SDS011;1033;52.560;13.374;2023-07-13T15:10:53;6.63;;;2.10;;
2055;SDS011;1033;52.560;13.374;2023-07-13T15:13:24;4.83;;;2.03;;
2055;SDS011;1033;52.560;13.374;2023-07-13T15:15:55;3.90;;;2.33;;
2055;SDS011;1033;52.560;13.374;2023-07-13T15:18:25;3.70;;;1.73;;
2055;SDS011;1033;52.560;13.374;2023-07-13T15:20:54;5.17;;;2.20;;
2055;SDS011;1033;52.560;13.374;2023-07-13T15:23:27;2.83;;;1.80;;
2055;SDS011;1033;52.560;13.374;2023-07-13T15:25:57;4.70;;;2.03;;
2055;SDS011;1033;52.560;13.374;2023-07-13T15:28:27;4.60;;;2.10;;
2055;SDS011;1033;52.560;13.374;2023-07-13T15:30:56;4.60;;;1.70;;
2055;SDS011;1033;52.560;13.374;2023-07-13T15:33:26;3.17;;;2.27;;
2055;SDS011;1033;52.560;13.374;2023-07-13T15:35:56;5.33;;;2.60;;
2055;SDS011;1033;52.560;13.374;2023-07-13T15:38:27;4.43;;;2.00;;
2055;SDS011;1033;52.560;13.374;2023-07-13T15:40:59;4.00;;;1.90;;
2055;SDS011;1033;52.560;13.374;2023-07-13T15:43:30;9.00;;;2.07;;
2055;SDS011;1033;52.560;13.374;2023-07-13T15:46:01;3.87;;;1.80;;
2055;SDS011;1033;52.560;13.374;2023-07-13T15:48:30;3.07;;;2.17;;
2055;SDS011;1033;52.560;13.374;2023-07-13T15:51:00;4.27;;;1.90;;
2055;SDS011;1033;52.560;13.374;2023-07-13T15:53:31;4.00;;;2.20;;
2055;SDS011;1033;52.560;13.374;2023-07-13T15:56:03;4.20;;;1.97;;
2055;SDS011;1033;52.560;13.374;2023-07-13T15:58:45;4.33;;;1.90;;
2055;SDS011;1033;52.560;13.374;2023-07-13T16:01:15;3.63;;;2.00;;
2055;SDS011;1033;52.560;13.374;2023-07-13T16:03:45;3.13;;;2.47;;
2055;SDS011;1033;52.560;13.374;2023-07-13T16:06:15;6.83;;;2.83;;
2055;SDS011;1033;52.560;13.374;2023-07-13T16:08:49;2.33;;;1.93;;
2055;SDS011;1033;52.560;13.374;2023-07-13T16:11:22;3.77;;;2.00;;
2055;SDS011;1033;52.560;13.374;2023-07-13T16:13:53;4.10;;;1.83;;
2055;SDS011;1033;52.560;13.374;2023-07-13T16:16:26;2.83;;;2.00;;
2055;SDS011;1033;52.560;13.374;2023-07-13T16:18:57;3.00;;;1.90;;
2055;SDS011;1033;52.560;13.374;2023-07-13T16:21:29;4.43;;;2.03;;
2055;SDS011;1033;52.560;13.374;2023-07-13T16:24:00;4.23;;;2.90;;
2055;SDS011;1033;52.560;13.374;2023-07-13T16:26:33;3.50;;;1.70;;
2055;SDS011;1033;52.560;13.374;2023-07-13T16:29:12;4.20;;;2.90;;
2055;SDS011;1033;52.560;13.374;2023-07-13T16:31:54;5.27;;;2.20;;
2055;SDS011;1033;52.560;13.374;2023-07-13T16:34:24;4.13;;;2.30;;
2055;SDS011;1033;52.560;13.374;2023-07-13T16:36:53;5.33;;;2.40;;
2055;SDS011;1033;52.560;13.374;2023-07-13T16:39:23;2.63;;;2.13;;
2055;SDS011;1033;52.560;13.374;2023-07-13T16:41:57;4.40;;;1.90;;
2055;SDS011;1033;52.560;13.374;2023-07-13T16:44:27;4.20;;;1.90;;
2055;SDS011;1033;52.560;13.374;2023-07-13T16:46:59;5.00;;;2.30;;
2055;SDS011;1033;52.560;13.374;2023-07-13T16:49:29;4.20;;;1.80;;